Arnold, PA

4:21 AM EDT on April 21, 2015 (GMT -0400)
Butler County-Scholter | | Change Station
CLOSE
Current Station
Airport
Location: Butler,
Elevation: 1247 ft
Nearby Weather Stations
Active Advisory: Wind Advisory

Elev 1247 ft 40.78 °N, 79.95 °W | Updated 6 minutes ago

Overcast
Overcast
45 °F
Feels Like 39 °F
N
10
Wind Variable Wind from West

Today
High -- | Low -- °F
--% Chance of Precip.
Yesterday
High -- | Low -- °F
Precip. -- in
6:31 AM 8:04 PM
Waxing Crescent, 9% visible
Pressure 29.71 in
Visibility 10.0 miles
Clouds Few 3500 ft
Mostly Cloudy 7500 ft
Overcast 8500 ft
Windchill 39 °F
Dew Point 34 °F
Humidity 66%
Rainfall 0.04 in
Snow Depth Not available.
UV 0 out of 12
Pollen 4.90 out of 12
Air Quality Not available.
Flu Activity Sporadic
METAR KBTP 210815Z AUTO 27009KT 10SM FEW035 BKN075 OVC085 07/01 A2971 RMK AO1

More Conditions Fewer Conditions

Pressure 29.71 in
Visibility 10.0 miles
Clouds Few 3500 ft
Mostly Cloudy 7500 ft
Overcast 8500 ft
Windchill 39 °F
Dew Point 34 °F
Humidity 66%
Rainfall 0.04 in
Snow Depth Not available.
UV 0 out of 12
Pollen 4.90 out of 12
Air Quality Not available.
Flu Activity Sporadic
METAR KBTP 210815Z AUTO 27009KT 10SM FEW035 BKN075 OVC085 07/01 A2971 RMK AO1

More Conditions Fewer Conditions

10-Day Weather Forecast

Almanac

Astronomy

Apr. 21, 2015 Rise Set
Actual Time
Civil Twilight
Nautical Twilight
Astronomical Twilight
Moon
Length of Visible Light
Length of Day
Tomorrow will be .
, % of the Moon is Illuminated

Today's Extremes

State Highs State Lows

Community

WunderPhotos

Upload Photos

1,815,327 photos uploaded!

WunderBlogs® & News

Nearby

Air Quality

  Air Quality AQ Index Pollutant
Not available.

Snow Depth

Station Depth Elevation

Earthquake Activity

City Distance Mag. Time & Date
Minimum magnitude displayed is 2.5.

Coastal Water Temperatures

Place Temperature

Stations

Nearby Weather Stations

Station Location Temp. Windchill Dew Point Humidity Wind Precip. Elev Updated Type
                   
Wind Advisory
Statement as of 4:06 AM EDT on April 21, 2015

... Wind Advisory in effect from 11 am this morning to 7 PM EDT
this evening...

The National Weather Service in Pittsburgh has issued a Wind
Advisory... which is in effect from 11 am this morning to 7 PM EDT
this evening.

* Winds... southwest 20 to 25 mph with gusts up to 50 mph.

* Period of strongest winds... noon through 400 PM.

* Impacts... scattered tree and power line damage can be expected.
Some minor property damage is possible in the highest gusts.
Travel will be difficult for high profile vehicles.


Precautionary/preparedness actions...

A Wind Advisory is issued when sustained winds of 30 to 39 mph
and/or gusts of 46 to 57 mph are expected. Winds this strong can
make driving difficult... especially for high profile vehicles. Use
extra caution.